CFG4DC EDDF-LGSM
Flight info
| Callsign | CFG4DC |
|---|---|
| Flight time | N/A |
| Altitude | 35000 |
| Route | CINDY5L CINDY Z74 LAMPU DCT NOMBO Y161 MAH DCT VAVOR DCT RADIZ DCT KUSIB DCT OKSIG DCT MARIL DCT BOSNA DCT PODOB DCT MEDUX UM867 KOGAT DCT ERANA UL737 TSL UN130 PIVOS/N0416F230 N130 MES G18 URNIL |
| Aircraft | A320/M-SDE3FGHIRWY/LB1 |
Departure
| Time | 2026-05-05 12:20 |
|---|---|
| Airport | Frankfurt Main Airport (EDDF) |
Arrival
| Time | N/A |
|---|---|
| Airport | Samos Airport (LGSM) |
| Time | Latitude | Longitude | Altitude | Speed | Heading |
|---|---|---|---|---|---|
| 2026-05-05 12:04 | 50.03630 | 8.53872 | 341 ft | 0 kts | 159° |
| 2026-05-05 12:17 | 50.03629 | 8.53873 | 341 ft | 1 kts | 159° |
| 2026-05-05 12:17 | 50.03601 | 8.53889 | 339 ft | 5 kts | 160° |
| 2026-05-05 12:18 | 50.03562 | 8.53894 | 341 ft | 7 kts | 210° |
| 2026-05-05 12:18 | 50.03532 | 8.53789 | 338 ft | 14 kts | 250° |
| 2026-05-05 12:18 | 50.03491 | 8.53616 | 336 ft | 20 kts | 249° |
| 2026-05-05 12:18 | 50.03433 | 8.53378 | 334 ft | 27 kts | 250° |
| 2026-05-05 12:19 | 50.03367 | 8.53095 | 335 ft | 28 kts | 248° |
| 2026-05-05 12:19 | 50.03304 | 8.52836 | 332 ft | 23 kts | 249° |
| 2026-05-05 12:19 | 50.03240 | 8.52637 | 334 ft | 19 kts | 221° |
| 2026-05-05 12:19 | 50.03109 | 8.52596 | 335 ft | 22 kts | 179° |
| 2026-05-05 12:20 | 50.02824 | 8.52598 | 335 ft | 72 kts | 179° |
| 2026-05-05 12:20 | 50.02124 | 8.52606 | 335 ft | 128 kts | 179° |
| 2026-05-05 12:20 | 50.01069 | 8.52619 | 362 ft | 170 kts | 179° |
| 2026-05-05 12:20 | 49.99929 | 8.52641 | 1020 ft | 161 kts | 180° |
| 2026-05-05 12:21 | 49.98790 | 8.52648 | 1592 ft | 166 kts | 180° |
| 2026-05-05 12:21 | 49.97619 | 8.52691 | 2118 ft | 173 kts | 171° |
| 2026-05-05 12:21 | 49.96475 | 8.53503 | 2371 ft | 194 kts | 137° |
| 2026-05-05 12:21 | 49.95667 | 8.55295 | 2617 ft | 214 kts | 120° |
| 2026-05-05 12:22 | 49.94909 | 8.57398 | 2934 ft | 231 kts | 120° |
| 2026-05-05 12:22 | 49.94206 | 8.59657 | 3595 ft | 234 kts | 105° |
| 2026-05-05 12:22 | 49.93996 | 8.62205 | 4122 ft | 246 kts | 94° |
| 2026-05-05 12:22 | 49.93897 | 8.64954 | 4553 ft | 264 kts | 95° |
| 2026-05-05 12:23 | 49.93712 | 8.67790 | 5180 ft | 271 kts | 107° |
| 2026-05-05 12:23 | 49.92832 | 8.70360 | 5942 ft | 272 kts | 133° |
| 2026-05-05 12:23 | 49.91379 | 8.72231 | 6556 ft | 274 kts | 144° |
| 2026-05-05 12:23 | 49.89836 | 8.73962 | 6786 ft | 273 kts | 144° |
| 2026-05-05 12:24 | 49.88437 | 8.75949 | 6847 ft | 274 kts | 131° |
| 2026-05-05 12:24 | 49.87392 | 8.78411 | 6875 ft | 275 kts | 120° |
| 2026-05-05 12:24 | 49.86466 | 8.81004 | 6852 ft | 275 kts | 121° |
| 2026-05-05 12:24 | 49.85531 | 8.83588 | 6851 ft | 275 kts | 121° |
| 2026-05-05 12:25 | 49.84591 | 8.86171 | 6842 ft | 275 kts | 121° |
| 2026-05-05 12:25 | 49.83650 | 8.88745 | 6842 ft | 275 kts | 121° |
| 2026-05-05 12:25 | 49.82720 | 8.91293 | 6860 ft | 277 kts | 121° |
| 2026-05-05 12:25 | 49.81765 | 8.93905 | 7517 ft | 279 kts | 121° |
| 2026-05-05 12:26 | 49.80811 | 8.96523 | 8360 ft | 280 kts | 121° |
| 2026-05-05 12:26 | 49.79852 | 8.99155 | 9136 ft | 282 kts | 121° |
| 2026-05-05 12:26 | 49.78882 | 9.01814 | 9895 ft | 285 kts | 121° |
| 2026-05-05 12:26 | 49.77876 | 9.04577 | 10182 ft | 306 kts | 121° |
| 2026-05-05 12:27 | 49.76800 | 9.07558 | 10331 ft | 329 kts | 118° |
| 2026-05-05 12:27 | 49.75924 | 9.10967 | 10492 ft | 352 kts | 107° |
| 2026-05-05 12:27 | 49.75331 | 9.14698 | 10971 ft | 361 kts | 107° |